SBOSBO CWL / EGFF
Speedbird OnlineSpeedbird Online CWL / EGFF

Cardiff International Airport
06:50 6.2°C

Location Cardiff, United Kingdom
Latitude: 51.39670181274414
Longitude: -3.343329906463623
Web Airport Website | Wikipedia
Altitude 67 Meter / 220 Feet
Distance 241 KM / 150 Miles
from London.
Time Zone UTC 0 hours (Europe/London)
Codes IATA: CWL
ICAO: EGFF
Runways
RunwayLength (m)Surface
122354Asphalt
302354Asphalt
Radio
TypeDescriptionFrequency
APPCardiff App119.15
APPCardiff Radar125.85
ATISATIS132.475
Radar133.6
TWRCardiff Twr133.1
Live ATC
METAR EGFF 290620Z AUTO 26009KT 9999 BKN002 OVC023 07/07 Q1028 RERA REDZ
TAF TAF EGFF 290457Z 2906/3006 24008KT 3000 BR OVC002 TEMPO 2906/2909 0400 -DZ FG BKN001 BECMG 2911/2914 9999 NSW FEW018 PROB40 TEMPO 2917/3003 8000 -RA BKN012 BECMG 3000/3003 30010KT
Weather As Of 29 Jan 2023 06:50
Description Overcast clouds
Wind 17 km/h from West (260°)
Cloud Cover 100%
Precipitation Rain: none, Snow: none
Sunrise 07:56
Sunset 16:56
Lounges 51° Business and Executive Lounge, Main Terminal
Rotations During the last 90 days there were
2 flights from LHR
2 flights from LGW
1 flights from PIT
3 flights to LGW



Support Speedbird Online

© 2017-2023 Speedbird Online